< < Back
Terminal Aerodrome Forecast


Current Version              Previous Versions:   1  2  3  4  5  6  7  8  9  

Terminal Aerodrome Forecast

506
FTUS42 KTAE 231100
TAFABY
TAF
KABY 231120Z 2312/2412 04005KT P6SM SKC=



Latest METAR

891
SAUS70 KWBC 231900
MTRABY
METAR KABY 231853Z VRB04KT 10SM CLR 22/07 A3005 RMK AO2 SLP176 T02220067
$


USA.gov is the U.S. government's official web portal to all federal, state and local government web resources and services.